createdAt,value
2017-12-20T00:01:16.356Z,57.97
2017-12-20T00:03:44.704Z,58.78
2017-12-20T00:06:13.077Z,60.05
2017-12-20T00:08:41.449Z,60.29
2017-12-20T00:11:09.797Z,60.39
2017-12-20T00:13:38.183Z,60.29
2017-12-20T00:16:06.532Z,60.49
2017-12-20T00:18:34.923Z,60.97
2017-12-20T00:21:03.374Z,61.31
2017-12-20T00:23:31.757Z,60.80
2017-12-20T00:26:00.109Z,61.18
2017-12-20T00:28:28.516Z,61.08
2017-12-20T00:30:56.879Z,60.78
2017-12-20T00:33:26.192Z,60.74
2017-12-20T00:35:54.560Z,60.38
2017-12-20T00:38:22.907Z,60.59
2017-12-20T00:40:51.652Z,60.43
2017-12-20T00:43:20.122Z,60.97
2017-12-20T00:45:48.472Z,60.48
2017-12-20T00:48:16.816Z,61.23
2017-12-20T00:50:45.189Z,61.05
2017-12-20T00:53:13.543Z,61.82
2017-12-20T00:55:41.910Z,62.55
2017-12-20T00:58:10.294Z,62.13
2017-12-20T01:00:38.665Z,62.33
2017-12-20T01:03:07.044Z,62.78
2017-12-20T01:05:35.407Z,63.13
2017-12-20T01:08:03.762Z,63.51
2017-12-20T01:10:32.191Z,63.34
2017-12-20T01:13:00.673Z,64.04
2017-12-20T01:15:29.040Z,63.80
2017-12-20T01:17:57.417Z,63.54
2017-12-20T01:20:25.900Z,63.18
2017-12-20T01:22:54.274Z,63.16
2017-12-20T01:25:22.636Z,62.77
2017-12-20T01:27:51.013Z,63.16
2017-12-20T01:30:19.355Z,62.90
2017-12-20T01:32:47.712Z,62.43
2017-12-20T01:35:16.176Z,62.66
2017-12-20T01:37:44.523Z,62.81
2017-12-20T01:40:12.935Z,62.57
2017-12-20T01:42:42.909Z,62.48
2017-12-20T01:45:11.649Z,63.49
2017-12-20T01:47:40.016Z,62.86
2017-12-20T01:50:08.408Z,63.92
2017-12-20T01:52:36.769Z,63.31
2017-12-20T01:55:05.152Z,63.21
2017-12-20T01:57:33.509Z,64.36
2017-12-20T02:00:01.886Z,63.76
2017-12-20T02:02:30.239Z,63.59
2017-12-20T02:04:58.607Z,63.56
2017-12-20T02:07:27.460Z,63.02
2017-12-20T02:09:55.834Z,64.21
2017-12-20T02:12:24.188Z,64.20
2017-12-20T02:14:52.536Z,64.19
2017-12-20T02:17:20.972Z,63.90
2017-12-20T02:19:49.387Z,63.82
2017-12-20T02:22:17.753Z,63.39
2017-12-20T02:24:46.104Z,63.48
2017-12-20T02:27:14.461Z,64.32
2017-12-20T02:29:42.828Z,63.93
2017-12-20T02:32:11.247Z,63.04
2017-12-20T02:34:39.624Z,63.20
2017-12-20T02:37:08.005Z,63.76
2017-12-20T02:39:36.387Z,63.93
2017-12-20T02:42:09.447Z,64.75
2017-12-20T02:44:37.838Z,63.84
2017-12-20T02:47:06.186Z,63.84
2017-12-20T02:49:35.008Z,63.39
2017-12-20T02:52:03.377Z,64.25
2017-12-20T02:54:31.777Z,63.36
2017-12-20T02:57:00.136Z,63.66
2017-12-20T02:59:28.528Z,63.51
2017-12-20T03:01:56.923Z,63.43
2017-12-20T03:04:25.288Z,63.34
2017-12-20T03:06:53.672Z,63.95
2017-12-20T03:09:22.027Z,64.42
2017-12-20T03:11:50.404Z,63.84
2017-12-20T03:14:19.619Z,63.81
2017-12-20T03:16:47.999Z,63.96
2017-12-20T03:19:16.355Z,64.03
2017-12-20T03:21:44.703Z,64.35
2017-12-20T03:24:13.464Z,63.79
2017-12-20T03:26:41.808Z,64.25
2017-12-20T03:29:10.206Z,64.23
2017-12-20T03:31:38.556Z,64.35
2017-12-20T03:34:06.938Z,64.48
2017-12-20T03:36:35.293Z,64.64
2017-12-20T03:39:04.036Z,64.63
2017-12-20T03:41:32.504Z,64.60
2017-12-20T03:44:00.844Z,64.76
2017-12-20T03:46:29.270Z,65.38
2017-12-20T03:48:57.620Z,64.96
2017-12-20T03:51:26.058Z,64.89
2017-12-20T03:53:54.908Z,64.96
2017-12-20T03:56:23.312Z,66.06
2017-12-20T03:58:51.769Z,65.77
2017-12-20T04:01:20.123Z,65.77
2017-12-20T04:03:48.528Z,65.48
2017-12-20T04:06:16.867Z,64.97
2017-12-20T04:08:45.275Z,66.25
2017-12-20T04:11:13.633Z,65.48
2017-12-20T04:13:42.084Z,66.28
2017-12-20T04:16:10.531Z,66.01
2017-12-20T04:18:38.888Z,65.89
2017-12-20T04:21:07.235Z,65.71
2017-12-20T04:23:35.990Z,65.01
2017-12-20T04:26:04.333Z,65.29
2017-12-20T04:28:32.747Z,65.12
2017-12-20T04:31:01.109Z,65.35
2017-12-20T04:33:29.488Z,64.99
2017-12-20T04:35:57.865Z,64.54
2017-12-20T04:38:26.232Z,64.61
2017-12-20T04:40:54.608Z,65.37
2017-12-20T04:43:22.995Z,65.21
2017-12-20T04:45:51.972Z,65.24
2017-12-20T04:48:20.326Z,64.54
2017-12-20T04:50:49.067Z,64.46
2017-12-20T04:53:17.536Z,63.90
2017-12-20T04:55:45.891Z,64.10
2017-12-20T04:58:14.297Z,63.93
2017-12-20T05:00:42.636Z,63.87
2017-12-20T05:03:11.034Z,63.81
2017-12-20T05:05:39.400Z,63.30
2017-12-20T05:08:07.759Z,63.44
2017-12-20T05:10:36.588Z,63.00
2017-12-20T05:13:04.946Z,62.93
2017-12-20T05:15:33.316Z,62.54
2017-12-20T05:18:01.668Z,62.53
2017-12-20T05:20:30.111Z,62.76
2017-12-20T05:22:59.413Z,62.98
2017-12-20T05:25:27.796Z,62.95
2017-12-20T05:27:56.835Z,62.70
2017-12-20T05:30:25.345Z,62.85
2017-12-20T05:32:53.856Z,61.83
2017-12-20T05:35:22.217Z,62.66
2017-12-20T05:37:50.584Z,62.56
2017-12-20T05:40:18.959Z,62.32
2017-12-20T05:42:47.309Z,62.00
2017-12-20T05:45:16.073Z,61.51
2017-12-20T05:47:44.441Z,62.12
2017-12-20T05:50:13.808Z,62.73
2017-12-20T05:52:42.224Z,61.91
2017-12-20T05:55:10.576Z,61.99
2017-12-20T05:57:38.964Z,62.18
2017-12-20T06:00:07.360Z,61.61
2017-12-20T06:02:35.840Z,61.20
2017-12-20T06:05:04.296Z,61.33
2017-12-20T06:07:32.671Z,61.28
2017-12-20T06:10:01.063Z,61.05
2017-12-20T06:12:29.432Z,61.54
2017-12-20T06:14:57.792Z,62.03
2017-12-20T06:17:26.145Z,61.22
2017-12-20T06:19:54.920Z,61.76
2017-12-20T06:22:23.265Z,61.43
2017-12-20T06:24:51.609Z,61.63
2017-12-20T06:27:20.024Z,61.04
2017-12-20T06:29:48.401Z,60.92
2017-12-20T06:32:16.765Z,61.47
2017-12-20T06:34:45.125Z,62.17
2017-12-20T06:37:13.501Z,61.95
2017-12-20T06:39:41.883Z,61.97
2017-12-20T06:42:10.250Z,62.49
2017-12-20T06:44:38.997Z,61.52
2017-12-20T06:47:07.472Z,61.10
2017-12-20T06:49:35.864Z,60.62
2017-12-20T06:52:04.229Z,61.32
2017-12-20T06:54:32.586Z,61.31
2017-12-20T06:57:01.075Z,61.31
2017-12-20T06:59:29.454Z,61.29
2017-12-20T07:01:57.830Z,61.28
2017-12-20T07:04:26.325Z,60.90
2017-12-20T07:06:54.714Z,61.24
2017-12-20T07:09:23.097Z,61.62
2017-12-20T07:11:51.468Z,62.02
2017-12-20T07:14:19.827Z,61.56
2017-12-20T07:16:48.204Z,61.65
2017-12-20T07:19:16.598Z,61.38
2017-12-20T07:21:44.964Z,61.61
2017-12-20T07:24:13.353Z,61.43
2017-12-20T07:26:41.734Z,61.54
2017-12-20T07:29:10.088Z,61.77
2017-12-20T07:31:38.440Z,61.88
2017-12-20T07:34:07.212Z,61.47
2017-12-20T07:36:36.055Z,61.19
2017-12-20T07:39:04.412Z,61.87
2017-12-20T07:41:32.844Z,61.99
2017-12-20T07:44:01.181Z,62.31
2017-12-20T07:46:29.572Z,62.09
2017-12-20T07:48:58.025Z,61.48
2017-12-20T07:51:26.405Z,61.50
2017-12-20T07:53:54.809Z,62.28
2017-12-20T07:56:23.212Z,62.84
2017-12-20T07:58:51.562Z,62.73
2017-12-20T08:01:19.908Z,62.33
2017-12-20T08:03:48.324Z,61.97
2017-12-20T08:06:16.693Z,61.01
2017-12-20T08:08:45.083Z,61.04
2017-12-20T08:11:13.434Z,60.47
2017-12-20T08:13:41.805Z,60.83
2017-12-20T08:16:10.579Z,60.43
2017-12-20T08:18:39.424Z,60.63
2017-12-20T08:21:07.785Z,61.25
2017-12-20T08:23:36.221Z,61.68
2017-12-20T08:26:04.993Z,62.42
2017-12-20T08:28:33.368Z,61.25
2017-12-20T08:31:01.730Z,60.04
2017-12-20T08:33:30.204Z,59.69
2017-12-20T08:35:58.569Z,59.39
2017-12-20T08:38:26.916Z,59.07
2017-12-20T08:40:55.712Z,59.06
2017-12-20T08:43:24.240Z,57.98
2017-12-20T08:45:53.232Z,58.52
2017-12-20T08:48:21.586Z,59.10
2017-12-20T08:50:50.087Z,58.79
2017-12-20T08:53:18.481Z,58.85
2017-12-20T08:55:46.841Z,58.46
2017-12-20T08:58:15.211Z,58.01
2017-12-20T09:00:43.568Z,57.60
2017-12-20T09:03:11.992Z,58.07
2017-12-20T09:05:40.355Z,57.79
2017-12-20T09:08:08.740Z,57.65
2017-12-20T09:10:37.332Z,58.04
2017-12-20T09:13:05.704Z,58.51
2017-12-20T09:15:34.071Z,57.98
2017-12-20T09:18:02.420Z,57.30
2017-12-20T09:20:30.840Z,58.44
2017-12-20T09:22:59.217Z,57.71
2017-12-20T09:25:27.588Z,57.55
2017-12-20T09:27:56.897Z,58.33
2017-12-20T09:30:25.252Z,58.07
2017-12-20T09:32:53.670Z,57.59
2017-12-20T09:35:22.028Z,57.42
2017-12-20T09:37:50.401Z,57.29
2017-12-20T09:40:18.788Z,57.38
2017-12-20T09:42:47.188Z,56.69
2017-12-20T09:45:15.652Z,56.71
2017-12-20T09:47:44.036Z,56.26
2017-12-20T09:50:12.451Z,57.02
2017-12-20T09:52:41.205Z,57.18
2017-12-20T09:55:09.583Z,57.07
2017-12-20T09:57:37.953Z,56.52
2017-12-20T10:00:06.549Z,56.36
2017-12-20T10:02:34.906Z,56.26
2017-12-20T10:05:03.263Z,56.40
2017-12-20T10:07:31.634Z,56.94
2017-12-20T10:09:59.990Z,56.53
2017-12-20T10:12:28.756Z,56.38
2017-12-20T10:14:57.117Z,56.74
2017-12-20T10:17:25.495Z,56.94
2017-12-20T10:19:53.873Z,56.90
2017-12-20T10:22:22.234Z,56.47
2017-12-20T10:24:50.731Z,56.14
2017-12-20T10:27:19.111Z,55.67
2017-12-20T10:29:47.498Z,55.94
2017-12-20T10:32:15.849Z,56.07
2017-12-20T10:34:44.207Z,56.04
2017-12-20T10:37:12.626Z,56.58
2017-12-20T10:39:41.007Z,56.67
2017-12-20T10:42:09.381Z,57.16
2017-12-20T10:44:37.732Z,57.65
2017-12-20T10:47:06.144Z,57.53
2017-12-20T10:49:34.533Z,57.74
2017-12-20T10:52:02.908Z,57.75
2017-12-20T10:54:31.285Z,57.74
2017-12-20T10:56:59.656Z,56.50
2017-12-20T10:59:28.040Z,57.67
2017-12-20T11:01:56.415Z,57.46
2017-12-20T11:04:24.829Z,57.88
2017-12-20T11:06:53.180Z,57.67
2017-12-20T11:09:21.588Z,57.72
2017-12-20T11:11:49.947Z,57.04
2017-12-20T11:14:18.421Z,56.68
2017-12-20T11:16:46.830Z,55.52
2017-12-20T11:19:15.586Z,54.88
2017-12-20T11:21:43.956Z,55.02
2017-12-20T11:24:12.513Z,55.41
2017-12-20T11:26:40.920Z,55.01
2017-12-20T11:29:09.326Z,55.61
2017-12-20T11:31:37.705Z,55.71
2017-12-20T11:34:06.161Z,55.86
2017-12-20T11:36:34.557Z,56.33
2017-12-20T11:39:02.920Z,57.09
2017-12-20T11:41:31.273Z,57.15
2017-12-20T11:43:59.749Z,57.04
2017-12-20T11:46:28.112Z,57.40
2017-12-20T11:48:56.919Z,57.68
2017-12-20T11:51:25.231Z,59.59
2017-12-20T11:53:53.624Z,57.94
2017-12-20T11:56:21.988Z,58.91
2017-12-20T11:58:50.358Z,58.14
2017-12-20T12:01:18.830Z,57.85
2017-12-20T12:03:47.189Z,57.61
2017-12-20T12:06:15.544Z,57.89
2017-12-20T12:08:44.372Z,57.67
2017-12-20T12:11:12.734Z,56.97
2017-12-20T12:13:41.107Z,58.11
2017-12-20T12:16:09.520Z,58.14
2017-12-20T12:18:37.872Z,57.62
2017-12-20T12:21:06.243Z,58.17
2017-12-20T12:23:34.648Z,57.92
2017-12-20T12:26:03.088Z,57.92
2017-12-20T12:28:31.926Z,57.88
2017-12-20T12:31:00.301Z,57.68
2017-12-20T12:33:28.665Z,57.91
2017-12-20T12:35:57.238Z,57.62
2017-12-20T12:38:25.636Z,57.47
2017-12-20T12:40:53.988Z,57.30
2017-12-20T12:43:22.380Z,57.38
2017-12-20T12:45:50.735Z,57.63
2017-12-20T12:48:19.488Z,58.09
2017-12-20T12:50:47.940Z,58.16
2017-12-20T12:53:16.288Z,57.49
2017-12-20T12:55:44.664Z,57.73
2017-12-20T12:58:13.081Z,57.57
2017-12-20T13:00:41.444Z,58.29
2017-12-20T13:03:09.787Z,56.98
2017-12-20T13:05:38.632Z,57.12
2017-12-20T13:08:07.217Z,57.19
2017-12-20T13:10:35.573Z,56.95
2017-12-20T13:13:03.928Z,56.65
2017-12-20T13:15:32.350Z,56.88
2017-12-20T13:18:00.716Z,57.36
2017-12-20T13:20:29.075Z,57.41
2017-12-20T13:22:57.432Z,57.65
2017-12-20T13:25:26.195Z,58.26
2017-12-20T13:27:55.172Z,58.52
2017-12-20T13:30:23.576Z,58.54
2017-12-20T13:32:52.035Z,58.81
2017-12-20T13:35:20.412Z,58.51
2017-12-20T13:37:48.778Z,58.33
2017-12-20T13:40:17.269Z,58.81
2017-12-20T13:42:45.648Z,59.39
2017-12-20T13:45:14.416Z,60.96
2017-12-20T13:47:42.870Z,60.81
2017-12-20T13:50:11.704Z,61.27
2017-12-20T13:52:40.089Z,60.62
2017-12-20T13:55:08.462Z,60.27
2017-12-20T13:57:37.068Z,60.05
2017-12-20T14:00:05.422Z,60.48
2017-12-20T14:02:33.798Z,60.57
2017-12-20T14:05:02.317Z,60.90
2017-12-20T14:07:30.671Z,60.71
2017-12-20T14:09:59.077Z,61.24
2017-12-20T14:12:27.820Z,61.19
2017-12-20T14:14:56.203Z,62.00
2017-12-20T14:17:24.699Z,61.50
2017-12-20T14:19:53.070Z,62.65
2017-12-20T14:22:21.449Z,62.14
2017-12-20T14:24:49.819Z,61.56
2017-12-20T14:27:18.174Z,61.59
2017-12-20T14:29:46.522Z,62.07
2017-12-20T14:32:15.289Z,61.53
2017-12-20T14:34:43.654Z,61.83
2017-12-20T14:37:12.140Z,62.09
2017-12-20T14:39:40.605Z,61.76
2017-12-20T14:42:09.097Z,62.03
2017-12-20T14:44:37.468Z,62.19
2017-12-20T14:47:05.817Z,61.55
2017-12-20T14:49:34.184Z,61.58
2017-12-20T14:52:02.595Z,61.46
2017-12-20T14:54:30.961Z,61.25
2017-12-20T14:57:00.197Z,60.61
2017-12-20T14:59:28.743Z,60.94
2017-12-20T15:01:57.096Z,60.72
2017-12-20T15:04:25.847Z,60.54
2017-12-20T15:06:54.310Z,60.58
2017-12-20T15:09:22.669Z,60.39
2017-12-20T15:11:51.032Z,60.43
2017-12-20T15:14:19.384Z,60.25
2017-12-20T15:16:48.157Z,61.11
2017-12-20T15:19:16.500Z,60.95
2017-12-20T15:21:44.857Z,61.46
2017-12-20T15:24:13.218Z,61.23
2017-12-20T15:26:42.167Z,61.20
2017-12-20T15:29:10.532Z,61.00
2017-12-20T15:31:38.922Z,60.74
2017-12-20T15:34:07.283Z,60.76
2017-12-20T15:36:35.665Z,60.64
2017-12-20T15:39:04.024Z,61.06
2017-12-20T15:41:32.379Z,60.83
2017-12-20T15:44:01.381Z,61.09
2017-12-20T15:46:29.736Z,60.98
2017-12-20T15:48:58.088Z,60.84
2017-12-20T15:51:26.492Z,60.41
2017-12-20T15:53:54.860Z,60.50
2017-12-20T15:56:23.224Z,60.66
2017-12-20T15:58:51.581Z,60.77
2017-12-20T16:01:20.021Z,60.33
2017-12-20T16:03:48.774Z,60.19
2017-12-20T16:06:17.120Z,60.53
2017-12-20T16:08:45.489Z,59.98
2017-12-20T16:11:13.854Z,60.05
2017-12-20T16:13:42.285Z,59.87
2017-12-20T16:16:10.696Z,59.49
2017-12-20T16:18:39.453Z,59.28
2017-12-20T16:21:07.924Z,59.30
2017-12-20T16:23:36.269Z,59.88
2017-12-20T16:26:04.653Z,59.48
2017-12-20T16:28:33.136Z,59.11
2017-12-20T16:31:01.489Z,59.62
2017-12-20T16:33:30.255Z,58.98
2017-12-20T16:35:58.616Z,59.46
2017-12-20T16:38:26.982Z,59.80
2017-12-20T16:40:55.361Z,60.04
2017-12-20T16:43:23.728Z,60.24
2017-12-20T16:45:52.089Z,60.27
2017-12-20T16:48:20.453Z,60.08
2017-12-20T16:50:49.392Z,59.29
2017-12-20T16:53:35.604Z,60.27
2017-12-20T16:56:04.170Z,60.16
2017-12-20T16:58:32.525Z,60.89
2017-12-20T17:01:00.920Z,61.03
2017-12-20T17:03:29.318Z,61.05
2017-12-20T17:05:57.680Z,60.81
2017-12-20T17:08:26.074Z,61.04
2017-12-20T17:10:54.444Z,61.61
2017-12-20T17:13:22.824Z,61.55
2017-12-20T17:15:51.177Z,61.31
2017-12-20T17:18:19.585Z,61.28
2017-12-20T17:20:47.961Z,60.61
2017-12-20T17:23:16.313Z,60.46
2017-12-20T17:25:44.694Z,60.65
2017-12-20T17:28:13.061Z,60.33
2017-12-20T17:30:41.429Z,59.78
2017-12-20T17:33:10.172Z,59.35
2017-12-20T17:35:38.637Z,59.38
2017-12-20T17:38:07.024Z,59.45
2017-12-20T17:40:35.409Z,59.43
2017-12-20T17:43:03.782Z,59.38
2017-12-20T17:45:32.159Z,59.21
2017-12-20T17:48:00.528Z,59.37
2017-12-20T17:50:28.912Z,59.79
2017-12-20T17:52:57.268Z,59.59
2017-12-20T17:55:25.629Z,59.94
2017-12-20T17:57:54.050Z,60.10
2017-12-20T18:00:22.429Z,59.59
2017-12-20T18:02:50.784Z,59.30
2017-12-20T18:05:19.168Z,59.56
2017-12-20T18:07:47.527Z,58.87
2017-12-20T18:10:15.884Z,59.66
2017-12-20T18:12:44.644Z,59.65
2017-12-20T18:15:13.005Z,59.79
2017-12-20T18:17:41.388Z,60.21
2017-12-20T18:20:09.745Z,60.41
2017-12-20T18:22:38.104Z,61.32
2017-12-20T18:25:06.478Z,61.17
2017-12-20T18:27:34.909Z,61.23
2017-12-20T18:30:03.384Z,61.12
2017-12-20T18:32:31.749Z,60.64
2017-12-20T18:35:00.151Z,60.46
2017-12-20T18:37:28.516Z,60.41
2017-12-20T18:39:56.875Z,60.34
2017-12-20T18:42:25.279Z,59.50
2017-12-20T18:44:53.652Z,59.86
2017-12-20T18:47:22.028Z,59.65
2017-12-20T18:49:50.424Z,59.96
2017-12-20T18:52:18.888Z,59.57
2017-12-20T18:54:47.285Z,59.73
2017-12-20T18:57:15.652Z,59.65
2017-12-20T18:59:44.035Z,59.48
2017-12-20T19:02:12.416Z,59.97
2017-12-20T19:04:40.805Z,59.63
2017-12-20T19:07:09.163Z,59.33
2017-12-20T19:09:37.518Z,60.29
2017-12-20T19:12:05.869Z,59.98
2017-12-20T19:14:34.625Z,59.72
2017-12-20T19:17:03.018Z,59.97
2017-12-20T19:19:31.384Z,60.59
2017-12-20T19:21:59.736Z,60.03
2017-12-20T19:24:28.130Z,59.61
2017-12-20T19:26:56.520Z,59.75
2017-12-20T19:29:24.889Z,59.91
2017-12-20T19:31:53.252Z,61.36
2017-12-20T19:34:21.606Z,60.94
2017-12-20T19:36:49.955Z,62.28
2017-12-20T19:39:18.301Z,61.34
2017-12-20T19:41:46.661Z,61.32
2017-12-20T19:44:15.035Z,61.57
2017-12-20T19:46:43.404Z,60.92
2017-12-20T19:49:11.770Z,60.61
2017-12-20T19:51:40.149Z,60.75
2017-12-20T19:54:08.516Z,61.28
2017-12-20T19:56:37.265Z,61.58
2017-12-20T19:59:05.630Z,61.41
2017-12-20T20:01:33.988Z,61.04
2017-12-20T20:04:02.357Z,61.37
2017-12-20T20:06:30.712Z,61.64
2017-12-20T20:08:59.499Z,61.12
2017-12-20T20:11:27.871Z,61.81
2017-12-20T20:13:56.619Z,61.49
2017-12-20T20:16:25.076Z,60.92
2017-12-20T20:18:53.432Z,60.89
2017-12-20T20:21:22.373Z,60.92
2017-12-20T20:23:50.721Z,62.38
2017-12-20T20:26:19.082Z,62.70
2017-12-20T20:28:47.917Z,63.79
2017-12-20T20:31:16.271Z,63.80
2017-12-20T20:33:44.653Z,63.80
2017-12-20T20:36:13.017Z,64.75
2017-12-20T20:38:41.449Z,64.88
2017-12-20T20:41:09.821Z,65.03
2017-12-20T20:43:38.285Z,65.08
2017-12-20T20:46:06.669Z,65.42
2017-12-20T20:48:35.044Z,65.26
2017-12-20T20:51:03.410Z,65.34
2017-12-20T20:53:31.762Z,65.71
2017-12-20T20:56:00.677Z,65.45
2017-12-20T20:58:29.033Z,65.45
2017-12-20T21:00:57.475Z,65.96
2017-12-20T21:03:25.854Z,65.67
2017-12-20T21:05:54.208Z,65.40
2017-12-20T21:08:22.567Z,65.12
2017-12-20T21:10:50.969Z,64.61
2017-12-20T21:13:19.353Z,64.57
2017-12-20T21:15:47.712Z,65.29
2017-12-20T21:18:16.073Z,65.47
2017-12-20T21:20:44.444Z,65.02
2017-12-20T21:23:12.805Z,65.29
2017-12-20T21:25:41.594Z,64.99
2017-12-20T21:28:10.336Z,65.15
2017-12-20T21:30:38.694Z,64.29
2017-12-20T21:33:07.060Z,64.61
2017-12-20T21:35:35.493Z,64.52
2017-12-20T21:38:03.876Z,64.65
2017-12-20T21:40:32.344Z,64.77
2017-12-20T21:43:00.713Z,65.07
2017-12-20T21:45:29.069Z,64.88
2017-12-20T21:47:57.781Z,65.43
2017-12-20T21:50:26.143Z,65.81
2017-12-20T21:52:54.493Z,66.56
2017-12-20T21:55:23.021Z,66.52
2017-12-20T21:57:51.373Z,66.22
2017-12-20T22:00:19.748Z,66.36
2017-12-20T22:02:48.331Z,66.87
2017-12-20T22:05:16.772Z,66.66
2017-12-20T22:07:45.581Z,66.15
2017-12-20T22:10:14.004Z,66.62
2017-12-20T22:12:42.472Z,66.13
2017-12-20T22:15:10.857Z,66.52
2017-12-20T22:17:39.230Z,66.73
2017-12-20T22:20:07.589Z,66.81
2017-12-20T22:22:36.001Z,67.08
2017-12-20T22:25:04.422Z,66.97
2017-12-20T22:27:34.284Z,66.81
2017-12-20T22:30:02.664Z,66.83
2017-12-20T22:32:31.332Z,66.97
2017-12-20T22:34:59.712Z,66.76
2017-12-20T22:37:28.089Z,66.99
2017-12-20T22:39:56.506Z,66.83
2017-12-20T22:42:25.052Z,66.48
2017-12-20T22:44:53.431Z,66.21
2017-12-20T22:47:21.932Z,66.22
2017-12-20T22:49:50.313Z,66.54
2017-12-20T22:52:18.692Z,66.83
2017-12-20T22:54:47.050Z,67.43
2017-12-20T22:57:15.408Z,66.59
2017-12-20T22:59:44.236Z,67.00
2017-12-20T23:02:12.726Z,66.78
2017-12-20T23:04:41.205Z,66.89
2017-12-20T23:07:09.560Z,66.85
2017-12-20T23:09:37.941Z,66.71
2017-12-20T23:12:06.347Z,66.70
2017-12-20T23:14:34.701Z,66.63
2017-12-20T23:17:03.108Z,66.55
2017-12-20T23:19:31.488Z,66.59
2017-12-20T23:21:59.875Z,66.25
2017-12-20T23:24:28.225Z,66.50
2017-12-20T23:26:56.618Z,66.71
2017-12-20T23:29:24.984Z,66.70
2017-12-20T23:31:53.359Z,66.52
2017-12-20T23:34:21.717Z,66.92
2017-12-20T23:36:50.072Z,66.79
2017-12-20T23:39:18.827Z,66.38
2017-12-20T23:41:47.180Z,67.39
2017-12-20T23:44:15.672Z,66.47
2017-12-20T23:46:44.056Z,66.18
2017-12-20T23:49:12.448Z,66.35
2017-12-20T23:51:40.804Z,66.69
2017-12-20T23:54:09.192Z,66.57
2017-12-20T23:56:37.581Z,66.62
2017-12-20T23:59:05.949Z,67.24
